sensor_id;sensor_type;location;lat;lon;timestamp;temperature;humidity
22167;DHT22;11249;52.468;13.776;2022-11-27T00:00:56;7.10;99.90
22167;DHT22;11249;52.468;13.776;2022-11-27T00:03:23;7.10;99.90
22167;DHT22;11249;52.468;13.776;2022-11-27T00:05:54;7.10;99.90
22167;DHT22;11249;52.468;13.776;2022-11-27T00:08:23;7.10;99.90
22167;DHT22;11249;52.468;13.776;2022-11-27T00:10:50;7.10;99.90
22167;DHT22;11249;52.468;13.776;2022-11-27T00:13:17;7.10;99.90
22167;DHT22;11249;52.468;13.776;2022-11-27T00:15:43;7.10;99.90
22167;DHT22;11249;52.468;13.776;2022-11-27T00:18:11;7.10;99.90
22167;DHT22;11249;52.468;13.776;2022-11-27T00:20:37;7.10;99.90
22167;DHT22;11249;52.468;13.776;2022-11-27T00:23:04;7.10;99.90
22167;DHT22;11249;52.468;13.776;2022-11-27T00:25:31;7.10;99.90
22167;DHT22;11249;52.468;13.776;2022-11-27T00:27:57;7.10;99.90
22167;DHT22;11249;52.468;13.776;2022-11-27T00:30:24;7.10;99.90
22167;DHT22;11249;52.468;13.776;2022-11-27T00:32:51;7.10;99.90
22167;DHT22;11249;52.468;13.776;2022-11-27T00:35:17;7.10;99.90
22167;DHT22;11249;52.468;13.776;2022-11-27T00:37:44;7.10;99.90
22167;DHT22;11249;52.468;13.776;2022-11-27T00:40:11;7.10;99.90
22167;DHT22;11249;52.468;13.776;2022-11-27T00:42:38;7.10;99.90
22167;DHT22;11249;52.468;13.776;2022-11-27T00:45:04;7.10;99.90
22167;DHT22;11249;52.468;13.776;2022-11-27T00:47:31;7.10;99.90
22167;DHT22;11249;52.468;13.776;2022-11-27T00:49:58;7.20;99.90
22167;DHT22;11249;52.468;13.776;2022-11-27T00:52:24;7.20;99.90
22167;DHT22;11249;52.468;13.776;2022-11-27T00:54:51;7.20;99.90
22167;DHT22;11249;52.468;13.776;2022-11-27T00:57:18;7.10;99.90
22167;DHT22;11249;52.468;13.776;2022-11-27T00:59:44;7.10;99.90
22167;DHT22;11249;52.468;13.776;2022-11-27T01:02:11;7.10;99.90
22167;DHT22;11249;52.468;13.776;2022-11-27T01:04:38;7.20;99.90
22167;DHT22;11249;52.468;13.776;2022-11-27T01:07:05;7.20;99.90
22167;DHT22;11249;52.468;13.776;2022-11-27T01:09:32;7.10;99.90
22167;DHT22;11249;52.468;13.776;2022-11-27T01:11:59;7.10;99.90
22167;DHT22;11249;52.468;13.776;2022-11-27T01:14:25;7.10;99.90
22167;DHT22;11249;52.468;13.776;2022-11-27T01:16:52;7.20;99.90
22167;DHT22;11249;52.468;13.776;2022-11-27T01:19:19;7.10;99.90
22167;DHT22;11249;52.468;13.776;2022-11-27T01:21:46;7.20;99.90
22167;DHT22;11249;52.468;13.776;2022-11-27T01:24:13;7.20;99.90
22167;DHT22;11249;52.468;13.776;2022-11-27T01:26:41;7.20;99.90
22167;DHT22;11249;52.468;13.776;2022-11-27T01:29:08;7.20;99.90
22167;DHT22;11249;52.468;13.776;2022-11-27T01:31:35;7.20;99.90
22167;DHT22;11249;52.468;13.776;2022-11-27T01:34:06;7.10;99.90
22167;DHT22;11249;52.468;13.776;2022-11-27T01:36:34;7.10;99.90
22167;DHT22;11249;52.468;13.776;2022-11-27T01:39:01;7.10;99.90
22167;DHT22;11249;52.468;13.776;2022-11-27T01:41:30;7.10;99.90
22167;DHT22;11249;52.468;13.776;2022-11-27T01:44:45;7.10;99.90
22167;DHT22;11249;52.468;13.776;2022-11-27T01:46:52;7.10;99.90
22167;DHT22;11249;52.468;13.776;2022-11-27T01:49:22;7.10;99.90
22167;DHT22;11249;52.468;13.776;2022-11-27T01:52:14;7.10;99.90
22167;DHT22;11249;52.468;13.776;2022-11-27T01:54:47;7.10;99.90
22167;DHT22;11249;52.468;13.776;2022-11-27T01:57:21;7.10;99.90
22167;DHT22;11249;52.468;13.776;2022-11-27T01:59:50;7.10;99.90
22167;DHT22;11249;52.468;13.776;2022-11-27T02:02:17;7.10;99.90
22167;DHT22;11249;52.468;13.776;2022-11-27T02:04:44;7.10;99.90
22167;DHT22;11249;52.468;13.776;2022-11-27T02:07:11;7.10;99.90
22167;DHT22;11249;52.468;13.776;2022-11-27T02:09:37;7.00;99.90
22167;DHT22;11249;52.468;13.776;2022-11-27T02:12:46;7.00;99.90
22167;DHT22;11249;52.468;13.776;2022-11-27T02:15:23;7.00;99.90
22167;DHT22;11249;52.468;13.776;2022-11-27T02:18:24;7.00;99.90
22167;DHT22;11249;52.468;13.776;2022-11-27T02:21:14;7.00;99.90
22167;DHT22;11249;52.468;13.776;2022-11-27T02:29:25;7.00;99.90
22167;DHT22;11249;52.468;13.776;2022-11-27T02:32:24;7.00;99.90
22167;DHT22;11249;52.468;13.776;2022-11-27T02:37:41;7.00;99.90
22167;DHT22;11249;52.468;13.776;2022-11-27T02:40:13;6.90;99.90
22167;DHT22;11249;52.468;13.776;2022-11-27T02:42:49;6.90;99.90
22167;DHT22;11249;52.468;13.776;2022-11-27T02:45:24;6.90;99.90
22167;DHT22;11249;52.468;13.776;2022-11-27T02:47:55;6.80;99.90
22167;DHT22;11249;52.468;13.776;2022-11-27T02:50:24;6.80;99.90
22167;DHT22;11249;52.468;13.776;2022-11-27T02:52:53;6.80;99.90
22167;DHT22;11249;52.468;13.776;2022-11-27T02:55:24;6.80;99.90
22167;DHT22;11249;52.468;13.776;2022-11-27T02:57:54;6.80;99.90
22167;DHT22;11249;52.468;13.776;2022-11-27T03:00:22;6.80;99.90
22167;DHT22;11249;52.468;13.776;2022-11-27T03:02:52;6.80;99.90
22167;DHT22;11249;52.468;13.776;2022-11-27T03:05:20;6.80;99.90
22167;DHT22;11249;52.468;13.776;2022-11-27T03:07:59;6.80;99.90
22167;DHT22;11249;52.468;13.776;2022-11-27T03:11:16;6.80;99.90
22167;DHT22;11249;52.468;13.776;2022-11-27T03:13:40;6.80;99.90
22167;DHT22;11249;52.468;13.776;2022-11-27T03:22:07;6.70;99.90
22167;DHT22;11249;52.468;13.776;2022-11-27T03:24:34;6.70;99.90
22167;DHT22;11249;52.468;13.776;2022-11-27T03:27:02;6.60;99.90
22167;DHT22;11249;52.468;13.776;2022-11-27T03:29:44;6.60;99.90
22167;DHT22;11249;52.468;13.776;2022-11-27T03:32:11;6.70;99.90
22167;DHT22;11249;52.468;13.776;2022-11-27T03:34:38;6.70;99.90
22167;DHT22;11249;52.468;13.776;2022-11-27T03:37:06;6.60;99.90
22167;DHT22;11249;52.468;13.776;2022-11-27T03:39:33;6.60;99.90
22167;DHT22;11249;52.468;13.776;2022-11-27T03:42:20;6.60;99.90
22167;DHT22;11249;52.468;13.776;2022-11-27T03:47:52;6.60;99.90
22167;DHT22;11249;52.468;13.776;2022-11-27T03:53:42;6.50;99.90
22167;DHT22;11249;52.468;13.776;2022-11-27T03:56:33;6.50;99.90
22167;DHT22;11249;52.468;13.776;2022-11-27T03:59:17;6.50;99.90
22167;DHT22;11249;52.468;13.776;2022-11-27T04:01:46;6.50;99.90
22167;DHT22;11249;52.468;13.776;2022-11-27T04:04:13;6.50;99.90
22167;DHT22;11249;52.468;13.776;2022-11-27T04:06:40;6.60;99.90
22167;DHT22;11249;52.468;13.776;2022-11-27T04:09:06;6.60;99.90
22167;DHT22;11249;52.468;13.776;2022-11-27T04:11:33;6.50;99.90
22167;DHT22;11249;52.468;13.776;2022-11-27T04:14:00;6.50;99.90
22167;DHT22;11249;52.468;13.776;2022-11-27T04:16:26;6.50;99.90
22167;DHT22;11249;52.468;13.776;2022-11-27T04:18:53;6.40;99.90
22167;DHT22;11249;52.468;13.776;2022-11-27T04:21:20;6.40;99.90
22167;DHT22;11249;52.468;13.776;2022-11-27T04:23:47;6.40;99.90
22167;DHT22;11249;52.468;13.776;2022-11-27T04:26:13;6.40;99.90
22167;DHT22;11249;52.468;13.776;2022-11-27T04:28:40;6.40;99.90
22167;DHT22;11249;52.468;13.776;2022-11-27T04:31:06;6.40;99.90
22167;DHT22;11249;52.468;13.776;2022-11-27T04:33:33;6.30;99.90
22167;DHT22;11249;52.468;13.776;2022-11-27T04:36:00;6.30;99.90
22167;DHT22;11249;52.468;13.776;2022-11-27T04:38:27;6.30;99.90
22167;DHT22;11249;52.468;13.776;2022-11-27T04:40:53;6.30;99.90
22167;DHT22;11249;52.468;13.776;2022-11-27T04:43:20;6.30;99.90
22167;DHT22;11249;52.468;13.776;2022-11-27T04:45:47;6.30;99.90
22167;DHT22;11249;52.468;13.776;2022-11-27T04:48:13;6.20;99.90
22167;DHT22;11249;52.468;13.776;2022-11-27T04:50:40;6.20;99.90
22167;DHT22;11249;52.468;13.776;2022-11-27T04:53:07;6.20;99.90
22167;DHT22;11249;52.468;13.776;2022-11-27T04:55:34;6.20;99.90
22167;DHT22;11249;52.468;13.776;2022-11-27T04:58:01;6.20;99.90
22167;DHT22;11249;52.468;13.776;2022-11-27T05:00:27;6.20;99.90
22167;DHT22;11249;52.468;13.776;2022-11-27T05:02:54;6.20;99.90
22167;DHT22;11249;52.468;13.776;2022-11-27T05:05:21;6.20;99.90
22167;DHT22;11249;52.468;13.776;2022-11-27T05:07:48;6.20;99.90
22167;DHT22;11249;52.468;13.776;2022-11-27T05:10:15;6.10;99.90
22167;DHT22;11249;52.468;13.776;2022-11-27T05:12:41;6.10;99.90
22167;DHT22;11249;52.468;13.776;2022-11-27T05:15:08;6.10;99.90
22167;DHT22;11249;52.468;13.776;2022-11-27T05:17:35;6.10;99.90
22167;DHT22;11249;52.468;13.776;2022-11-27T05:20:02;6.00;99.90
22167;DHT22;11249;52.468;13.776;2022-11-27T05:22:29;6.00;99.90
22167;DHT22;11249;52.468;13.776;2022-11-27T05:24:56;6.00;99.90
22167;DHT22;11249;52.468;13.776;2022-11-27T05:27:22;6.00;99.90
22167;DHT22;11249;52.468;13.776;2022-11-27T05:29:49;6.00;99.90
22167;DHT22;11249;52.468;13.776;2022-11-27T05:32:16;6.00;99.90
22167;DHT22;11249;52.468;13.776;2022-11-27T05:34:42;6.00;99.90
22167;DHT22;11249;52.468;13.776;2022-11-27T05:37:09;6.00;99.90
22167;DHT22;11249;52.468;13.776;2022-11-27T05:39:44;6.00;99.90
22167;DHT22;11249;52.468;13.776;2022-11-27T05:42:11;6.00;99.90
22167;DHT22;11249;52.468;13.776;2022-11-27T05:44:38;6.00;99.90
22167;DHT22;11249;52.468;13.776;2022-11-27T05:47:05;6.00;99.90
22167;DHT22;11249;52.468;13.776;2022-11-27T05:49:32;5.90;99.90
22167;DHT22;11249;52.468;13.776;2022-11-27T05:51:58;5.90;99.90
22167;DHT22;11249;52.468;13.776;2022-11-27T05:54:25;5.90;99.90
22167;DHT22;11249;52.468;13.776;2022-11-27T05:56:52;5.90;99.90
22167;DHT22;11249;52.468;13.776;2022-11-27T05:59:18;5.90;99.90
22167;DHT22;11249;52.468;13.776;2022-11-27T06:01:45;5.90;99.90
22167;DHT22;11249;52.468;13.776;2022-11-27T06:04:12;5.90;99.90
22167;DHT22;11249;52.468;13.776;2022-11-27T06:06:39;5.90;99.90
22167;DHT22;11249;52.468;13.776;2022-11-27T06:09:05;5.80;99.90
22167;DHT22;11249;52.468;13.776;2022-11-27T06:11:38;5.80;99.90
22167;DHT22;11249;52.468;13.776;2022-11-27T06:14:07;5.80;99.90
22167;DHT22;11249;52.468;13.776;2022-11-27T06:16:34;5.70;99.90
22167;DHT22;11249;52.468;13.776;2022-11-27T06:19:01;5.70;99.90
22167;DHT22;11249;52.468;13.776;2022-11-27T06:21:28;5.70;99.90
22167;DHT22;11249;52.468;13.776;2022-11-27T06:23:55;5.60;99.90
22167;DHT22;11249;52.468;13.776;2022-11-27T06:26:28;5.60;99.90
22167;DHT22;11249;52.468;13.776;2022-11-27T06:28:56;5.50;99.90
22167;DHT22;11249;52.468;13.776;2022-11-27T06:31:26;5.50;99.90
22167;DHT22;11249;52.468;13.776;2022-11-27T06:33:54;5.40;99.90
22167;DHT22;11249;52.468;13.776;2022-11-27T06:36:22;5.40;99.90
22167;DHT22;11249;52.468;13.776;2022-11-27T06:38:50;5.30;99.90
22167;DHT22;11249;52.468;13.776;2022-11-27T06:41:19;5.30;99.90
22167;DHT22;11249;52.468;13.776;2022-11-27T06:43:46;5.30;99.90
22167;DHT22;11249;52.468;13.776;2022-11-27T06:46:15;5.30;99.90
22167;DHT22;11249;52.468;13.776;2022-11-27T06:48:43;5.20;99.90
22167;DHT22;11249;52.468;13.776;2022-11-27T06:51:13;5.20;99.90
22167;DHT22;11249;52.468;13.776;2022-11-27T06:53:40;5.20;99.90
22167;DHT22;11249;52.468;13.776;2022-11-27T06:56:09;5.10;99.90
22167;DHT22;11249;52.468;13.776;2022-11-27T06:58:36;5.10;99.90
22167;DHT22;11249;52.468;13.776;2022-11-27T07:01:09;5.10;99.90
22167;DHT22;11249;52.468;13.776;2022-11-27T07:03:37;5.10;99.90
22167;DHT22;11249;52.468;13.776;2022-11-27T07:06:06;5.10;99.90
22167;DHT22;11249;52.468;13.776;2022-11-27T07:08:34;5.10;99.90
22167;DHT22;11249;52.468;13.776;2022-11-27T07:11:06;5.10;99.90
22167;DHT22;11249;52.468;13.776;2022-11-27T07:13:34;5.10;99.90
22167;DHT22;11249;52.468;13.776;2022-11-27T07:16:06;5.10;99.90
22167;DHT22;11249;52.468;13.776;2022-11-27T07:18:36;5.20;99.90
22167;DHT22;11249;52.468;13.776;2022-11-27T07:21:03;5.20;99.90
22167;DHT22;11249;52.468;13.776;2022-11-27T07:23:30;5.20;99.90
22167;DHT22;11249;52.468;13.776;2022-11-27T07:25:57;5.30;99.90
22167;DHT22;11249;52.468;13.776;2022-11-27T07:28:24;5.30;99.90
22167;DHT22;11249;52.468;13.776;2022-11-27T07:30:55;5.40;99.90
22167;DHT22;11249;52.468;13.776;2022-11-27T07:33:22;5.40;99.90
22167;DHT22;11249;52.468;13.776;2022-11-27T07:35:49;5.50;99.90
22167;DHT22;11249;52.468;13.776;2022-11-27T07:38:15;5.50;99.90
22167;DHT22;11249;52.468;13.776;2022-11-27T07:40:42;5.50;99.90
22167;DHT22;11249;52.468;13.776;2022-11-27T07:43:09;5.50;99.90
22167;DHT22;11249;52.468;13.776;2022-11-27T07:45:36;5.50;99.90
22167;DHT22;11249;52.468;13.776;2022-11-27T07:48:03;5.50;99.90
22167;DHT22;11249;52.468;13.776;2022-11-27T07:50:29;5.50;99.90
22167;DHT22;11249;52.468;13.776;2022-11-27T07:52:57;5.50;99.90
22167;DHT22;11249;52.468;13.776;2022-11-27T07:55:23;5.50;99.90
22167;DHT22;11249;52.468;13.776;2022-11-27T07:57:50;5.50;99.90
22167;DHT22;11249;52.468;13.776;2022-11-27T08:00:17;5.50;99.90
22167;DHT22;11249;52.468;13.776;2022-11-27T08:02:44;5.50;99.90
22167;DHT22;11249;52.468;13.776;2022-11-27T08:05:10;5.50;99.90
22167;DHT22;11249;52.468;13.776;2022-11-27T08:07:38;5.50;99.90
22167;DHT22;11249;52.468;13.776;2022-11-27T08:10:06;5.50;99.90
22167;DHT22;11249;52.468;13.776;2022-11-27T08:12:33;5.50;99.90
22167;DHT22;11249;52.468;13.776;2022-11-27T08:15:00;5.50;99.90
22167;DHT22;11249;52.468;13.776;2022-11-27T08:17:26;5.50;99.90
22167;DHT22;11249;52.468;13.776;2022-11-27T08:19:53;5.40;99.90
22167;DHT22;11249;52.468;13.776;2022-11-27T08:22:20;5.40;99.90
22167;DHT22;11249;52.468;13.776;2022-11-27T08:24:47;5.40;99.90
22167;DHT22;11249;52.468;13.776;2022-11-27T08:27:14;5.40;99.90
22167;DHT22;11249;52.468;13.776;2022-11-27T08:29:42;5.50;99.90
22167;DHT22;11249;52.468;13.776;2022-11-27T08:32:09;5.40;99.90
22167;DHT22;11249;52.468;13.776;2022-11-27T08:34:36;5.50;99.90
22167;DHT22;11249;52.468;13.776;2022-11-27T08:37:07;5.50;99.90
22167;DHT22;11249;52.468;13.776;2022-11-27T08:39:33;5.40;99.90
22167;DHT22;11249;52.468;13.776;2022-11-27T08:42:00;5.40;99.90
22167;DHT22;11249;52.468;13.776;2022-11-27T08:44:27;5.40;99.90
22167;DHT22;11249;52.468;13.776;2022-11-27T08:46:53;5.40;99.90
22167;DHT22;11249;52.468;13.776;2022-11-27T08:49:20;5.50;99.90
22167;DHT22;11249;52.468;13.776;2022-11-27T08:51:47;5.50;99.90
22167;DHT22;11249;52.468;13.776;2022-11-27T08:54:13;5.50;99.90
22167;DHT22;11249;52.468;13.776;2022-11-27T08:56:40;5.50;99.90
22167;DHT22;11249;52.468;13.776;2022-11-27T08:59:07;5.40;99.90
22167;DHT22;11249;52.468;13.776;2022-11-27T09:01:34;5.50;99.90
22167;DHT22;11249;52.468;13.776;2022-11-27T09:04:01;5.50;99.90
22167;DHT22;11249;52.468;13.776;2022-11-27T09:06:30;5.50;99.90
22167;DHT22;11249;52.468;13.776;2022-11-27T09:08:58;5.50;99.90
22167;DHT22;11249;52.468;13.776;2022-11-27T09:11:26;5.60;99.90
22167;DHT22;11249;52.468;13.776;2022-11-27T09:13:54;5.60;99.90
22167;DHT22;11249;52.468;13.776;2022-11-27T09:16:21;5.60;99.90
22167;DHT22;11249;52.468;13.776;2022-11-27T09:18:50;5.60;99.90
22167;DHT22;11249;52.468;13.776;2022-11-27T09:21:19;5.70;99.90
22167;DHT22;11249;52.468;13.776;2022-11-27T09:23:46;5.70;99.90
22167;DHT22;11249;52.468;13.776;2022-11-27T09:26:15;5.80;99.90
22167;DHT22;11249;52.468;13.776;2022-11-27T09:28:42;5.80;99.90
22167;DHT22;11249;52.468;13.776;2022-11-27T09:31:12;5.90;99.90
22167;DHT22;11249;52.468;13.776;2022-11-27T09:33:40;5.90;99.90
22167;DHT22;11249;52.468;13.776;2022-11-27T09:36:19;6.00;99.90
22167;DHT22;11249;52.468;13.776;2022-11-27T09:38:46;6.00;99.90
22167;DHT22;11249;52.468;13.776;2022-11-27T09:41:25;6.00;99.90
22167;DHT22;11249;52.468;13.776;2022-11-27T09:44:02;6.00;99.90
22167;DHT22;11249;52.468;13.776;2022-11-27T09:46:34;6.00;99.90
22167;DHT22;11249;52.468;13.776;2022-11-27T09:49:06;6.00;99.90
22167;DHT22;11249;52.468;13.776;2022-11-27T09:51:44;6.00;99.90
22167;DHT22;11249;52.468;13.776;2022-11-27T09:54:25;6.00;99.90
22167;DHT22;11249;52.468;13.776;2022-11-27T09:56:53;6.10;99.90
22167;DHT22;11249;52.468;13.776;2022-11-27T09:59:24;6.00;99.90
22167;DHT22;11249;52.468;13.776;2022-11-27T10:01:55;6.00;99.90
22167;DHT22;11249;52.468;13.776;2022-11-27T10:04:23;6.00;99.90
22167;DHT22;11249;52.468;13.776;2022-11-27T10:07:20;5.90;99.90
22167;DHT22;11249;52.468;13.776;2022-11-27T10:09:55;6.00;99.90
22167;DHT22;11249;52.468;13.776;2022-11-27T10:17:56;6.00;99.90
22167;DHT22;11249;52.468;13.776;2022-11-27T10:20:49;6.00;99.90
22167;DHT22;11249;52.468;13.776;2022-11-27T10:23:37;6.00;99.90
22167;DHT22;11249;52.468;13.776;2022-11-27T10:26:17;6.10;99.90
22167;DHT22;11249;52.468;13.776;2022-11-27T10:31:48;6.10;99.90
22167;DHT22;11249;52.468;13.776;2022-11-27T10:34:40;6.10;99.90
22167;DHT22;11249;52.468;13.776;2022-11-27T10:39:48;6.20;99.90
22167;DHT22;11249;52.468;13.776;2022-11-27T10:42:21;6.20;99.90
22167;DHT22;11249;52.468;13.776;2022-11-27T10:45:36;6.30;99.90
22167;DHT22;11249;52.468;13.776;2022-11-27T10:47:42;6.30;99.90
22167;DHT22;11249;52.468;13.776;2022-11-27T10:50:15;6.40;99.90
22167;DHT22;11249;52.468;13.776;2022-11-27T10:52:50;6.50;99.90
22167;DHT22;11249;52.468;13.776;2022-11-27T10:58:39;6.90;99.90
22167;DHT22;11249;52.468;13.776;2022-11-27T11:01:10;7.10;99.90
22167;DHT22;11249;52.468;13.776;2022-11-27T11:03:37;7.20;99.90
22167;DHT22;11249;52.468;13.776;2022-11-27T11:06:07;7.30;99.90
22167;DHT22;11249;52.468;13.776;2022-11-27T11:08:48;7.40;99.90
22167;DHT22;11249;52.468;13.776;2022-11-27T11:11:24;7.50;99.90
22167;DHT22;11249;52.468;13.776;2022-11-27T11:13:52;7.70;99.90
22167;DHT22;11249;52.468;13.776;2022-11-27T11:16:23;7.80;99.90
22167;DHT22;11249;52.468;13.776;2022-11-27T11:18:56;7.90;99.90
22167;DHT22;11249;52.468;13.776;2022-11-27T11:21:27;8.10;99.90
22167;DHT22;11249;52.468;13.776;2022-11-27T11:24:06;8.20;99.90
22167;DHT22;11249;52.468;13.776;2022-11-27T11:26:43;8.30;99.90
22167;DHT22;11249;52.468;13.776;2022-11-27T11:29:34;8.30;99.90
22167;DHT22;11249;52.468;13.776;2022-11-27T11:32:15;8.50;99.90
22167;DHT22;11249;52.468;13.776;2022-11-27T11:34:46;8.60;99.90
22167;DHT22;11249;52.468;13.776;2022-11-27T11:37:21;8.70;99.90
22167;DHT22;11249;52.468;13.776;2022-11-27T11:40:04;8.80;99.90
22167;DHT22;11249;52.468;13.776;2022-11-27T11:42:36;8.90;99.90
22167;DHT22;11249;52.468;13.776;2022-11-27T11:47:50;8.90;99.90
22167;DHT22;11249;52.468;13.776;2022-11-27T11:50:30;8.80;99.90
22167;DHT22;11249;52.468;13.776;2022-11-27T11:53:23;8.70;99.90
22167;DHT22;11249;52.468;13.776;2022-11-27T11:56:00;8.60;99.90
22167;DHT22;11249;52.468;13.776;2022-11-27T11:58:53;8.50;99.90
22167;DHT22;11249;52.468;13.776;2022-11-27T12:01:56;8.50;99.90
22167;DHT22;11249;52.468;13.776;2022-11-27T12:05:02;8.40;99.90
22167;DHT22;11249;52.468;13.776;2022-11-27T12:10:55;8.50;99.90
22167;DHT22;11249;52.468;13.776;2022-11-27T12:13:38;8.50;99.90
22167;DHT22;11249;52.468;13.776;2022-11-27T12:16:23;8.50;99.90
22167;DHT22;11249;52.468;13.776;2022-11-27T12:19:09;8.50;99.90
22167;DHT22;11249;52.468;13.776;2022-11-27T12:21:50;8.50;99.90
22167;DHT22;11249;52.468;13.776;2022-11-27T12:24:37;8.50;99.90
22167;DHT22;11249;52.468;13.776;2022-11-27T12:27:12;8.50;99.90
22167;DHT22;11249;52.468;13.776;2022-11-27T12:29:51;8.40;99.90
22167;DHT22;11249;52.468;13.776;2022-11-27T12:38:18;8.40;99.90
22167;DHT22;11249;52.468;13.776;2022-11-27T12:41:05;8.40;99.90
22167;DHT22;11249;52.468;13.776;2022-11-27T12:43:44;8.40;99.90
22167;DHT22;11249;52.468;13.776;2022-11-27T12:46:38;8.40;99.90
22167;DHT22;11249;52.468;13.776;2022-11-27T12:49:24;8.40;99.90
22167;DHT22;11249;52.468;13.776;2022-11-27T12:51:58;8.50;99.90
22167;DHT22;11249;52.468;13.776;2022-11-27T12:54:31;8.50;99.90
22167;DHT22;11249;52.468;13.776;2022-11-27T12:57:06;8.50;99.90
22167;DHT22;11249;52.468;13.776;2022-11-27T12:59:55;8.40;99.90
22167;DHT22;11249;52.468;13.776;2022-11-27T13:07:59;8.30;99.90
22167;DHT22;11249;52.468;13.776;2022-11-27T13:10:50;8.30;99.90
22167;DHT22;11249;52.468;13.776;2022-11-27T13:13:54;8.20;99.90
22167;DHT22;11249;52.468;13.776;2022-11-27T13:16:40;8.20;99.90
22167;DHT22;11249;52.468;13.776;2022-11-27T13:19:30;8.10;99.90
22167;DHT22;11249;52.468;13.776;2022-11-27T13:21:59;8.10;99.90
22167;DHT22;11249;52.468;13.776;2022-11-27T13:24:28;8.00;99.90
22167;DHT22;11249;52.468;13.776;2022-11-27T13:27:12;8.10;99.90
22167;DHT22;11249;52.468;13.776;2022-11-27T13:29:47;8.00;99.90
22167;DHT22;11249;52.468;13.776;2022-11-27T13:32:30;7.90;99.90
22167;DHT22;11249;52.468;13.776;2022-11-27T13:35:00;7.90;99.90
22167;DHT22;11249;52.468;13.776;2022-11-27T13:37:34;7.90;99.90
22167;DHT22;11249;52.468;13.776;2022-11-27T13:40:38;7.80;99.90
22167;DHT22;11249;52.468;13.776;2022-11-27T13:43:20;7.80;99.90
22167;DHT22;11249;52.468;13.776;2022-11-27T13:45:49;7.80;99.90
22167;DHT22;11249;52.468;13.776;2022-11-27T13:48:31;7.70;99.90
22167;DHT22;11249;52.468;13.776;2022-11-27T13:50:59;7.60;99.90
22167;DHT22;11249;52.468;13.776;2022-11-27T13:53:40;7.50;99.90
22167;DHT22;11249;52.468;13.776;2022-11-27T13:56:08;7.50;99.90
22167;DHT22;11249;52.468;13.776;2022-11-27T13:58:37;7.50;99.90
22167;DHT22;11249;52.468;13.776;2022-11-27T14:01:30;7.40;99.90
22167;DHT22;11249;52.468;13.776;2022-11-27T14:04:06;7.30;99.90
22167;DHT22;11249;52.468;13.776;2022-11-27T14:06:35;7.30;99.90
22167;DHT22;11249;52.468;13.776;2022-11-27T14:09:05;7.20;99.90
22167;DHT22;11249;52.468;13.776;2022-11-27T14:11:52;7.10;99.90
22167;DHT22;11249;52.468;13.776;2022-11-27T14:14:24;7.10;99.90
22167;DHT22;11249;52.468;13.776;2022-11-27T14:17:00;7.00;99.90
22167;DHT22;11249;52.468;13.776;2022-11-27T14:19:33;6.90;99.90
22167;DHT22;11249;52.468;13.776;2022-11-27T14:22:14;6.80;99.90
22167;DHT22;11249;52.468;13.776;2022-11-27T14:24:41;6.80;99.90
22167;DHT22;11249;52.468;13.776;2022-11-27T14:27:18;6.70;99.90
22167;DHT22;11249;52.468;13.776;2022-11-27T14:29:46;6.60;99.90
22167;DHT22;11249;52.468;13.776;2022-11-27T14:32:14;6.50;99.90
22167;DHT22;11249;52.468;13.776;2022-11-27T14:34:41;6.40;99.90
22167;DHT22;11249;52.468;13.776;2022-11-27T14:37:26;6.40;99.90
22167;DHT22;11249;52.468;13.776;2022-11-27T14:39:54;6.30;99.90
22167;DHT22;11249;52.468;13.776;2022-11-27T14:42:23;6.30;99.90
22167;DHT22;11249;52.468;13.776;2022-11-27T14:47:31;6.10;99.90
22167;DHT22;11249;52.468;13.776;2022-11-27T14:49:58;6.00;99.90
22167;DHT22;11249;52.468;13.776;2022-11-27T14:52:26;6.00;99.90
22167;DHT22;11249;52.468;13.776;2022-11-27T14:54:54;5.90;99.90
22167;DHT22;11249;52.468;13.776;2022-11-27T14:57:26;5.90;99.90
22167;DHT22;11249;52.468;13.776;2022-11-27T15:00:19;5.80;99.90
22167;DHT22;11249;52.468;13.776;2022-11-27T15:02:48;5.70;99.90
22167;DHT22;11249;52.468;13.776;2022-11-27T15:05:26;5.70;99.90
22167;DHT22;11249;52.468;13.776;2022-11-27T15:07:56;5.60;99.90
22167;DHT22;11249;52.468;13.776;2022-11-27T15:10:30;5.50;99.90
22167;DHT22;11249;52.468;13.776;2022-11-27T15:12:59;5.50;99.90
22167;DHT22;11249;52.468;13.776;2022-11-27T15:15:28;5.40;99.90
22167;DHT22;11249;52.468;13.776;2022-11-27T15:18:01;5.30;99.90
22167;DHT22;11249;52.468;13.776;2022-11-27T15:20:39;5.20;99.90
22167;DHT22;11249;52.468;13.776;2022-11-27T15:25:48;5.10;99.90
22167;DHT22;11249;52.468;13.776;2022-11-27T15:30:55;5.00;99.90
22167;DHT22;11249;52.468;13.776;2022-11-27T15:33:27;5.00;99.90
22167;DHT22;11249;52.468;13.776;2022-11-27T15:38:40;4.90;99.90
22167;DHT22;11249;52.468;13.776;2022-11-27T15:41:23;4.90;99.90
22167;DHT22;11249;52.468;13.776;2022-11-27T15:43:50;4.80;99.90
22167;DHT22;11249;52.468;13.776;2022-11-27T15:46:33;4.80;99.90
22167;DHT22;11249;52.468;13.776;2022-11-27T15:49:00;4.80;99.90
22167;DHT22;11249;52.468;13.776;2022-11-27T15:51:27;4.70;99.90
22167;DHT22;11249;52.468;13.776;2022-11-27T15:53:54;4.70;99.90
22167;DHT22;11249;52.468;13.776;2022-11-27T15:56:21;4.70;99.90
22167;DHT22;11249;52.468;13.776;2022-11-27T15:58:47;4.70;99.90
22167;DHT22;11249;52.468;13.776;2022-11-27T16:01:14;4.60;99.90
22167;DHT22;11249;52.468;13.776;2022-11-27T16:03:41;4.60;99.90
22167;DHT22;11249;52.468;13.776;2022-11-27T16:06:08;4.60;99.90
22167;DHT22;11249;52.468;13.776;2022-11-27T16:08:35;4.60;99.90
22167;DHT22;11249;52.468;13.776;2022-11-27T16:11:05;4.50;99.90
22167;DHT22;11249;52.468;13.776;2022-11-27T16:13:32;4.50;99.90
22167;DHT22;11249;52.468;13.776;2022-11-27T16:16:07;4.50;99.90
22167;DHT22;11249;52.468;13.776;2022-11-27T16:18:34;4.50;99.90
22167;DHT22;11249;52.468;13.776;2022-11-27T16:21:05;4.50;99.90
22167;DHT22;11249;52.468;13.776;2022-11-27T16:23:33;4.40;99.90
22167;DHT22;11249;52.468;13.776;2022-11-27T16:26:00;4.40;99.90
22167;DHT22;11249;52.468;13.776;2022-11-27T16:28:28;4.40;99.90
22167;DHT22;11249;52.468;13.776;2022-11-27T16:30:57;4.40;99.90
22167;DHT22;11249;52.468;13.776;2022-11-27T16:33:28;4.40;99.90
22167;DHT22;11249;52.468;13.776;2022-11-27T16:35:55;4.40;99.90
22167;DHT22;11249;52.468;13.776;2022-11-27T16:38:22;4.40;99.90
22167;DHT22;11249;52.468;13.776;2022-11-27T16:40:49;4.40;99.90
22167;DHT22;11249;52.468;13.776;2022-11-27T16:43:15;4.40;99.90
22167;DHT22;11249;52.468;13.776;2022-11-27T16:45:42;4.40;99.90
22167;DHT22;11249;52.468;13.776;2022-11-27T16:48:09;4.40;99.90
22167;DHT22;11249;52.468;13.776;2022-11-27T16:50:36;4.40;99.90
22167;DHT22;11249;52.468;13.776;2022-11-27T16:53:02;4.30;99.90
22167;DHT22;11249;52.468;13.776;2022-11-27T16:55:29;4.30;99.90
22167;DHT22;11249;52.468;13.776;2022-11-27T16:57:56;4.40;99.90
22167;DHT22;11249;52.468;13.776;2022-11-27T17:00:23;4.40;99.90